METAR rapporten vliegvelden

   
LEMG - Malaga
Gewijzigd: 24-10-2017 09:00
Gedeeltelijk bewolkt  
Gedeeltelijk bewolkt  
   Wind: varieert 3.7 km/h
Wind: varieert 3.7 km/h
Temperatuur: 18°C
Dauwpunt: 17°C
Vochtigheid: 94%
Barometer: 1024 hPa
Bewolking: Gedeeltelijk bewolkt
Zicht: meer dan 10 km
Bewolking: Licht bewolkt 1500 ft,
Gedeeltelijk bewolkt 3000 ft
LEMG 240700Z VRB02KT 9999 FEW015 SCT030 18/17 Q1024 NOSIG
LEAL - Alicante
Gewijzigd: 24-10-2017 09:00
Helder  
Helder  
   Wind: varieert 3.7 km/h
Wind: varieert 3.7 km/h
Temperatuur: 14°C
Dauwpunt: 12°C
Vochtigheid: 88%
Barometer: 1024 hPa
Zicht: meer dan 10 km
Bewolking: Helder
LEAL 240700Z VRB02KT CAVOK 14/12 Q1024 NOSIG
LEBB - Bilbao
Gewijzigd: 24-10-2017 09:00
Helder  
Helder  
   Wind: Oosten 5.6 km/h
Wind: Oosten 5.6 km/h
Temperatuur: 9°C
Voelt als: 8°C
Dauwpunt: 7°C
Vochtigheid: 87%
Barometer: 1024 hPa
Zicht: meer dan 10 km
Bewolking: Helder
LEBB 240700Z 09003KT 060V130 CAVOK 09/07 Q1024 NOSIG
GCTS - Tenerife
Gewijzigd: 24-10-2017 09:00
Licht bewolkt  
Licht bewolkt  
   Wind: ONO 18.5 km/h
Wind: ONO 18.5 km/h
Temperatuur: 21°C
Dauwpunt: 17°C
Vochtigheid: 78%
Barometer: 1017 hPa
Bewolking: Licht bewolkt
Zicht: meer dan 10 km
Bewolking: Licht bewolkt 2500 ft
GCTS 240700Z 06010KT 9999 FEW025 21/17 Q1017 NOSIG
EIDW - Dublin
Gewijzigd: 24-10-2017 09:00
Grotendeels bewolkt  
Grotendeels bewolkt  
   Wind: ZW 33.3 km/h
Wind: ZW 33.3 km/h
Temperatuur: 16°C
Dauwpunt: 14°C
Vochtigheid: 88%
Barometer: 1006 hPa
Bewolking: Grotendeels bewolkt
Zicht: meer dan 10 km
Bewolking: Licht bewolkt 800 ft,
Grotendeels bewolkt 1600 ft,
Grotendeels bewolkt 2200 ft
EIDW 240700Z 23018KT 9999 FEW008 BKN016 BKN022 16/14 Q1006 NOSIG
LPFR - Albufeira
Gewijzigd: 24-10-2017 09:00
Helder  
Helder  
   Wind: ONO 24.1 km/h
Wind: ONO 24.1 km/h
Temperatuur: 18°C
Dauwpunt: 14°C
Vochtigheid: 78%
Barometer: 1020 hPa
Zicht: meer dan 10 km
Bewolking: Helder
LPFR 240700Z 06013KT CAVOK 18/14 Q1020

Script ontwikkeld door  Saratoga-weather.org Aangepast voor de template door  Weerstation Leuven

U vindt ons ook hier:

Het Weer Aktueel

European Weather Network

WeatherCloud

Weather Underground

Benelux Weer Netwerk

WeatherlinkIP

Apparatuur in gebruik:

Weerstation
Davis VP2

Weerprogramma
consoleWD

Weercomputer
Raspberry

Gesponsord door
Stef van Bakel koeltechniek

Davis VP2

consoleWD

Raspberry

Stef van Bakel koeltechniek